Time;durP1;ratioP1;P1;durP2;ratioP2;P2;SDS_P1;SDS_P2;PMS_P1;PMS_P2;Temp;Humidity;BMP_temperature;BMP_pressure;BME280_temperature;BME280_humidity;BME280_pressure;Samples;Min_cycle;Max_cycle;Signal;HPM_P1;HPM_P2
2023/08/11 00:00:21;;;;;;;17.97;6.47;;;;;;;14.76;75.13;100716.34;4235178;28;22614;-65
2023/08/11 00:02:51;;;;;;;13.30;5.87;;;;;;;14.75;75.16;100722.81;4228537;28;21302;-65
2023/08/11 00:05:19;;;;;;;10.80;5.50;;;;;;;14.83;74.43;100730.13;4232123;28;21365;-65
2023/08/11 00:07:50;;;;;;;14.20;6.27;;;;;;;14.72;74.39;100724.00;4231590;28;20669;-66
2023/08/11 00:10:17;;;;;;;17.10;6.00;;;;;;;14.74;74.08;100724.66;4237973;28;20569;-65
2023/08/11 00:12:45;;;;;;;13.93;6.47;;;;;;;14.65;74.31;100727.53;4234245;28;20234;-65
2023/08/11 00:15:12;;;;;;;14.57;6.03;;;;;;;14.57;74.57;100723.75;4242253;28;22588;-66
2023/08/11 00:17:41;;;;;;;12.60;5.43;;;;;;;14.59;74.58;100718.13;4227980;28;20397;-66
2023/08/11 00:20:08;;;;;;;13.90;5.80;;;;;;;14.56;74.66;100726.66;4234796;28;20224;-65
2023/08/11 00:22:37;;;;;;;14.50;5.53;;;;;;;14.47;75.24;100714.88;4231477;28;20416;-64
2023/08/11 00:25:04;;;;;;;15.87;6.83;;;;;;;14.49;75.58;100722.91;4233341;28;20341;-66
2023/08/11 00:27:31;;;;;;;17.77;6.07;;;;;;;14.60;74.84;100710.84;4224447;28;20237;-67
2023/08/11 00:29:58;;;;;;;13.73;6.97;;;;;;;14.53;74.90;100716.97;4246478;28;21342;-66
2023/08/11 00:32:25;;;;;;;13.27;6.10;;;;;;;14.52;74.78;100711.66;4233895;28;22417;-67
2023/08/11 00:34:51;;;;;;;17.37;6.87;;;;;;;14.68;73.31;100703.56;4241453;28;20245;-65
2023/08/11 00:37:18;;;;;;;12.90;5.47;;;;;;;14.61;73.73;100713.38;4231008;28;20295;-66
2023/08/11 00:39:45;;;;;;;15.20;7.00;;;;;;;14.48;74.03;100713.84;4242132;28;20232;-67
2023/08/11 00:42:12;;;;;;;18.43;6.83;;;;;;;14.45;74.18;100705.16;4234396;28;20306;-66
2023/08/11 00:44:39;;;;;;;19.93;6.23;;;;;;;14.38;74.47;100705.00;4231810;28;20232;-63
2023/08/11 00:47:05;;;;;;;15.17;6.60;;;;;;;14.42;74.04;100707.22;4228597;28;20296;-65
2023/08/11 00:49:33;;;;;;;14.97;6.23;;;;;;;14.61;73.30;100710.66;4238504;28;20242;-65
2023/08/11 00:52:03;;;;;;;15.93;6.70;;;;;;;14.76;72.75;100707.31;4217253;28;20424;-66
2023/08/11 00:54:33;;;;;;;11.03;5.80;;;;;;;14.68;72.93;100702.72;4242829;28;20231;-68
2023/08/11 00:57:00;;;;;;;14.60;6.00;;;;;;;14.60;73.16;100708.13;4230549;28;21451;-65
2023/08/11 00:59:27;;;;;;;13.77;5.97;;;;;;;14.72;72.62;100701.34;4237992;28;20237;-67
2023/08/11 01:01:54;;;;;;;15.67;5.83;;;;;;;14.71;72.67;100695.06;4237576;28;20383;-64
2023/08/11 01:04:21;;;;;;;14.03;5.70;;;;;;;14.56;73.13;100708.44;4232295;28;20316;-65
2023/08/11 01:07:06;;;;;;;13.47;6.33;;;;;;;14.62;72.86;100698.75;4238544;28;20339;-65
2023/08/11 01:09:49;;;;;;;15.00;6.00;;;;;;;14.59;72.84;100701.78;4237799;28;20238;-66
2023/08/11 01:12:19;;;;;;;14.53;6.00;;;;;;;14.36;73.76;100699.69;4244667;28;20245;-65
2023/08/11 01:14:52;;;;;;;11.93;5.90;;;;;;;14.50;73.21;100703.66;4232794;28;20238;-67
2023/08/11 01:17:20;;;;;;;13.63;5.67;;;;;;;14.37;73.82;100704.13;4229131;28;22878;-65
2023/08/11 01:19:47;;;;;;;14.03;5.70;;;;;;;14.40;73.59;100705.66;4231122;28;20244;-65
2023/08/11 01:22:15;;;;;;;11.33;5.43;;;;;;;14.62;72.80;100698.75;4238329;28;21145;-66
2023/08/11 01:24:43;;;;;;;14.17;5.70;;;;;;;14.60;72.89;100691.75;4234766;28;20244;-63
2023/08/11 01:27:10;;;;;;;13.13;6.37;;;;;;;14.41;73.62;100697.34;4256253;28;20240;-65
2023/08/11 01:29:38;;;;;;;12.13;5.73;;;;;;;14.54;73.37;100691.41;4233814;28;20632;-66
2023/08/11 01:32:05;;;;;;;18.73;6.10;;;;;;;14.66;72.89;100688.41;4240571;28;20238;-66
2023/08/11 01:34:31;;;;;;;14.93;6.03;;;;;;;14.57;73.09;100690.22;4232652;28;23593;-64
2023/08/11 01:37:00;;;;;;;16.30;5.80;;;;;;;14.51;73.55;100686.28;4226684;28;20606;-67
2023/08/11 01:39:33;;;;;;;13.53;5.93;;;;;;;14.34;74.43;100690.00;4233128;28;22022;-65
2023/08/11 01:42:02;;;;;;;11.30;5.17;;;;;;;14.34;74.52;100699.03;4239398;28;21973;-66
2023/08/11 01:44:29;;;;;;;9.57;5.00;;;;;;;14.19;74.83;100689.78;4212511;28;22383;-66
2023/08/11 01:46:56;;;;;;;15.33;6.50;;;;;;;14.10;75.78;100688.88;4230759;28;20227;-64
2023/08/11 01:49:25;;;;;;;9.87;5.23;;;;;;;13.99;75.96;100694.63;4238533;28;20244;-66
2023/08/11 01:51:51;;;;;;;15.57;5.67;;;;;;;14.01;76.31;100685.28;4233642;28;21666;-65
2023/08/11 01:54:18;;;;;;;15.80;6.23;;;;;;;13.91;76.79;100698.16;4231901;28;20273;-64
2023/08/11 01:56:45;;;;;;;10.07;5.60;;;;;;;13.88;76.70;100685.75;4230132;28;20283;-66
2023/08/11 01:59:14;;;;;;;12.80;5.93;;;;;;;13.94;76.64;100687.81;4230602;28;21549;-64
2023/08/11 02:01:41;;;;;;;13.80;5.87;;;;;;;14.10;75.26;100681.59;4228428;28;20409;-65
2023/08/11 02:04:10;;;;;;;9.23;5.30;;;;;;;14.12;75.17;100684.13;4230294;28;22063;-67
2023/08/11 02:06:37;;;;;;;11.60;5.53;;;;;;;14.08;74.99;100686.34;4242489;28;21132;-64
2023/08/11 02:09:12;;;;;;;15.13;5.27;;;;;;;14.23;74.33;100683.84;4236454;28;21996;-64
2023/08/11 02:11:39;;;;;;;15.07;5.83;;;;;;;14.10;74.97;100686.16;4243088;28;20353;-67
2023/08/11 02:14:05;;;;;;;10.60;5.30;;;;;;;13.95;75.22;100697.69;4235712;28;20229;-66
2023/08/11 02:16:32;;;;;;;10.10;5.50;;;;;;;13.96;75.37;100687.66;4233621;28;20238;-65
2023/08/11 02:19:00;;;;;;;11.93;5.17;;;;;;;13.97;75.76;100685.78;4239069;28;20402;-64
2023/08/11 02:21:27;;;;;;;12.13;5.40;;;;;;;14.22;74.17;100684.00;4243141;28;22760;-64
2023/08/11 02:23:54;;;;;;;12.73;5.43;;;;;;;14.18;74.01;100690.81;4235885;28;20239;-65
2023/08/11 02:26:22;;;;;;;14.17;5.37;;;;;;;14.09;74.35;100689.91;4237715;28;20529;-65
2023/08/11 02:28:49;;;;;;;13.43;5.30;;;;;;;14.16;74.18;100693.66;4248324;28;20388;-65
2023/08/11 02:31:16;;;;;;;11.63;5.10;;;;;;;13.91;75.19;100699.03;4251230;28;21070;-65
2023/08/11 02:33:43;;;;;;;10.73;5.70;;;;;;;14.05;75.09;100693.97;4222337;28;20269;-66
2023/08/11 02:36:10;;;;;;;10.40;5.47;;;;;;;14.12;73.91;100695.03;4245785;28;20235;-65
2023/08/11 02:38:36;;;;;;;14.23;5.47;;;;;;;14.17;74.00;100694.53;4248590;28;20642;-66
2023/08/11 02:41:03;;;;;;;10.40;5.30;;;;;;;14.16;74.01;100703.72;4250351;28;22079;-64
2023/08/11 02:43:29;;;;;;;14.63;5.97;;;;;;;14.15;74.01;100707.44;4234484;28;20231;-64
2023/08/11 02:45:56;;;;;;;11.70;5.20;;;;;;;14.19;73.60;100704.25;4238191;28;21387;-64
2023/08/11 02:48:23;;;;;;;16.90;6.13;;;;;;;14.26;73.29;100696.28;4241007;28;20238;-65
2023/08/11 02:50:50;;;;;;;11.60;4.83;;;;;;;14.22;73.19;100695.75;4237314;28;23042;-65
2023/08/11 02:53:16;;;;;;;9.10;5.23;;;;;;;14.01;74.14;100698.06;4229718;28;20227;-66
2023/08/11 02:55:43;;;;;;;11.07;5.57;;;;;;;13.82;74.90;100708.16;4243410;28;20231;-65
2023/08/11 02:58:10;;;;;;;13.60;5.10;;;;;;;13.75;75.17;100707.94;4243423;28;20239;-64
2023/08/11 03:00:37;;;;;;;17.00;5.33;;;;;;;13.98;74.59;100709.25;4250618;28;22295;-66
2023/08/11 03:03:03;;;;;;;11.97;4.87;;;;;;;13.92;74.29;100710.75;4235798;28;20227;-63
2023/08/11 03:05:30;;;;;;;10.37;4.60;;;;;;;13.69;75.00;100715.91;4224540;28;20366;-64
2023/08/11 03:07:57;;;;;;;11.20;4.50;;;;;;;13.59;75.63;100718.75;4217478;28;20257;-66
2023/08/11 03:10:23;;;;;;;10.90;5.27;;;;;;;13.50;76.32;100723.28;4226554;28;21103;-64
2023/08/11 03:12:50;;;;;;;10.50;5.17;;;;;;;13.47;76.80;100715.44;4219221;28;20290;-64
2023/08/11 03:15:17;;;;;;;9.87;4.83;;;;;;;13.37;77.39;100718.22;4226999;28;20228;-65
2023/08/11 03:17:43;;;;;;;9.97;4.90;;;;;;;13.24;77.98;100726.81;4222864;28;20352;-64
2023/08/11 03:20:12;;;;;;;10.63;4.87;;;;;;;13.18;78.66;100723.84;4225128;28;20246;-64
2023/08/11 03:22:41;;;;;;;13.43;5.37;;;;;;;13.13;79.15;100724.31;4235287;28;20237;-66
2023/08/11 03:25:10;;;;;;;10.20;5.20;;;;;;;13.14;79.17;100732.31;4228485;28;20236;-66
2023/08/11 03:27:42;;;;;;;9.23;4.73;;;;;;;13.14;79.22;100731.47;4237391;28;20346;-65
2023/08/11 03:30:11;;;;;;;12.67;5.07;;;;;;;13.06;79.45;100725.97;4231805;28;21192;-63
2023/08/11 03:32:41;;;;;;;12.33;5.23;;;;;;;13.05;80.04;100733.28;4245653;28;20265;-67
2023/08/11 03:35:08;;;;;;;8.73;5.37;;;;;;;13.11;79.68;100737.22;4246905;28;20236;-66
2023/08/11 03:37:35;;;;;;;9.70;4.87;;;;;;;13.04;80.09;100730.69;4268654;28;20306;-65
2023/08/11 03:40:12;;;;;;;10.73;5.20;;;;;;;13.11;79.75;100727.22;4254596;28;20310;-64
2023/08/11 03:42:42;;;;;;;9.80;5.13;;;;;;;13.09;80.04;100733.81;4260414;28;20309;-64
2023/08/11 03:45:12;;;;;;;11.17;5.60;;;;;;;13.07;79.83;100733.94;4246413;28;21132;-66
2023/08/11 03:47:40;;;;;;;13.00;5.27;;;;;;;13.19;79.42;100731.00;4246531;28;20560;-64
2023/08/11 03:50:07;;;;;;;15.60;5.57;;;;;;;13.42;77.99;100724.09;4246999;28;21110;-65
2023/08/11 03:52:36;;;;;;;14.67;5.60;;;;;;;13.68;76.43;100733.25;4244497;28;20239;-65
2023/08/11 03:55:03;;;;;;;10.43;4.87;;;;;;;13.79;75.57;100727.53;4263660;28;20222;-63
2023/08/11 03:57:30;;;;;;;16.07;5.40;;;;;;;13.80;75.67;100737.41;4259277;28;20231;-66
2023/08/11 03:59:57;;;;;;;12.27;5.20;;;;;;;13.95;74.97;100727.63;4243833;28;20231;-66
2023/08/11 04:02:24;;;;;;;12.80;4.87;;;;;;;13.98;74.65;100726.44;4227984;28;20235;-65
2023/08/11 04:04:51;;;;;;;12.23;4.97;;;;;;;13.86;75.02;100723.13;4238389;28;20229;-64
2023/08/11 04:07:18;;;;;;;13.70;4.70;;;;;;;14.15;73.17;100723.78;4260681;28;20239;-66
2023/08/11 04:09:46;;;;;;;14.57;5.10;;;;;;;14.07;72.87;100724.63;4250921;28;21696;-67
2023/08/11 04:12:13;;;;;;;9.97;4.80;;;;;;;14.19;72.47;100720.59;4233447;28;20265;-65
2023/08/11 04:14:39;;;;;;;10.67;4.63;;;;;;;14.30;72.01;100719.44;4257746;28;22973;-66
2023/08/11 04:17:07;;;;;;;13.17;5.37;;;;;;;14.37;71.84;100717.75;4263461;28;21624;-65
2023/08/11 04:19:35;;;;;;;13.07;4.80;;;;;;;14.53;70.79;100724.25;4241850;28;20240;-63
2023/08/11 04:22:05;;;;;;;11.33;4.50;;;;;;;14.54;70.97;100728.69;4242577;28;21404;-65
2023/08/11 04:24:32;;;;;;;10.40;5.30;;;;;;;14.45;71.75;100732.41;4257625;28;20235;-65
2023/08/11 04:26:58;;;;;;;10.97;5.27;;;;;;;14.56;72.11;100734.84;4258649;28;21602;-66
2023/08/11 04:29:26;;;;;;;12.70;5.37;;;;;;;14.39;72.53;100734.78;4242777;28;21783;-66
2023/08/11 04:31:52;;;;;;;19.80;5.77;;;;;;;14.26;72.84;100739.84;4257413;28;20295;-65
2023/08/11 04:34:19;;;;;;;12.73;5.30;;;;;;;14.45;72.27;100733.28;4244017;28;20235;-66
2023/08/11 04:36:46;;;;;;;8.10;4.53;;;;;;;14.27;72.70;100739.69;4245616;28;20237;-68
2023/08/11 04:39:12;;;;;;;9.33;4.80;;;;;;;14.26;73.03;100745.28;4247801;28;20288;-66
2023/08/11 04:41:39;;;;;;;12.47;5.30;;;;;;;13.98;73.69;100736.47;4254270;28;20344;-65
2023/08/11 04:44:06;;;;;;;11.40;5.00;;;;;;;14.03;74.17;100739.56;4250011;28;20307;-67
2023/08/11 04:46:32;;;;;;;12.67;5.23;;;;;;;14.20;73.50;100746.78;4246765;28;20230;-66
2023/08/11 04:49:00;;;;;;;11.87;5.10;;;;;;;14.18;74.16;100750.69;4249447;28;23137;-67
2023/08/11 04:51:27;;;;;;;12.63;5.83;;;;;;;13.87;75.28;100740.34;4245481;28;20734;-66
2023/08/11 04:53:59;;;;;;;9.47;4.83;;;;;;;13.87;75.45;100746.63;4255262;28;20605;-66
2023/08/11 04:56:27;;;;;;;13.03;5.33;;;;;;;14.02;75.01;100746.88;4253596;28;20273;-65
2023/08/11 04:58:57;;;;;;;11.80;5.20;;;;;;;14.12;74.70;100756.81;4229496;28;20231;-67
2023/08/11 05:01:24;;;;;;;10.83;4.90;;;;;;;14.13;74.45;100756.63;4245563;28;20306;-64
2023/08/11 05:03:51;;;;;;;12.23;5.13;;;;;;;14.15;74.56;100759.19;4249132;28;20588;-65
2023/08/11 05:06:17;;;;;;;19.80;5.47;;;;;;;14.17;74.81;100747.09;4230138;28;22926;-63
2023/08/11 05:08:45;;;;;;;9.70;5.60;;;;;;;14.25;74.83;100759.91;4235698;28;20238;-70
2023/08/11 05:11:12;;;;;;;13.37;7.13;;;;;;;14.42;74.00;100753.53;4258380;28;20276;-72
2023/08/11 05:13:38;;;;;;;14.27;5.70;;;;;;;14.48;73.96;100757.44;4263578;28;20257;-69
2023/08/11 05:16:05;;;;;;;10.40;5.60;;;;;;;14.47;74.57;100746.72;4235372;28;22728;-70
2023/08/11 05:18:32;;;;;;;10.60;5.10;;;;;;;14.56;74.35;100756.63;4222495;28;20296;-69
2023/08/11 05:21:09;;;;;;;10.13;5.03;;;;;;;14.72;73.20;100744.94;4232282;28;21966;-72
2023/08/11 05:23:36;;;;;;;16.60;5.87;;;;;;;14.71;73.55;100757.72;4246405;28;22168;-70
2023/08/11 05:26:02;;;;;;;10.77;5.50;;;;;;;14.99;72.96;100751.97;4230801;28;21619;-68
2023/08/11 05:28:29;;;;;;;13.30;5.53;;;;;;;15.01;72.82;100751.78;4221213;28;20236;-70
2023/08/11 05:30:56;;;;;;;12.87;5.50;;;;;;;14.92;73.43;100769.19;4250812;28;20683;-68
2023/08/11 05:33:24;;;;;;;12.00;5.50;;;;;;;14.96;74.04;100770.53;4228145;28;20243;-66
2023/08/11 05:35:51;;;;;;;14.43;5.30;;;;;;;15.16;73.62;100754.72;4211663;28;20238;-71
2023/08/11 05:38:22;;;;;;;9.93;4.67;;;;;;;15.51;72.18;100756.25;4219125;28;20331;-66
2023/08/11 05:40:49;;;;;;;10.37;6.20;;;;;;;15.63;71.75;100750.41;4264610;28;20281;-68
2023/08/11 05:43:16;;;;;;;13.20;6.43;;;;;;;15.67;71.89;100749.91;4287628;28;21136;-69
2023/08/11 05:45:42;;;;;;;15.13;5.97;;;;;;;15.94;70.59;100746.97;4245715;28;20235;-65
2023/08/11 05:48:09;;;;;;;17.07;5.30;;;;;;;16.09;70.35;100755.28;4232083;28;20489;-67
2023/08/11 05:50:38;;;;;;;11.30;5.70;;;;;;;15.87;70.71;100759.63;4249631;28;20270;-69
2023/08/11 05:53:05;;;;;;;13.20;5.80;;;;;;;15.91;71.02;100745.44;4222746;28;20231;-72
2023/08/11 05:55:31;;;;;;;9.33;5.13;;;;;;;15.82;71.02;100758.22;4259305;28;20239;-71
2023/08/11 05:57:58;;;;;;;12.77;5.60;;;;;;;16.25;69.11;100759.84;4271678;28;22635;-69
2023/08/11 06:00:25;;;;;;;14.60;5.07;;;;;;;16.32;69.50;100760.84;4255996;28;20780;-71
2023/08/11 06:02:52;;;;;;;12.40;4.70;;;;;;;16.66;68.68;100756.91;4276705;28;20227;-73
2023/08/11 06:05:21;;;;;;;12.77;5.30;;;;;;;17.20;67.45;100760.66;4269172;28;20241;-68
2023/08/11 06:07:48;;;;;;;13.73;4.93;;;;;;;18.53;63.35;100761.84;4287023;28;23386;-68
2023/08/11 06:10:32;;;;;;;9.40;4.50;;;;;;;20.55;56.32;100763.53;4253776;28;21722;-70
2023/08/11 06:12:59;;;;;;;11.13;4.83;;;;;;;20.42;54.26;100761.59;4248496;28;20422;-69
2023/08/11 06:15:25;;;;;;;9.00;4.70;;;;;;;20.29;55.35;100761.50;4233649;28;20231;-68
2023/08/11 06:17:52;;;;;;;12.20;3.90;;;;;;;22.38;49.98;100766.16;4262648;28;20255;-71
2023/08/11 06:20:19;;;;;;;9.43;3.90;;;;;;;21.96;49.96;100770.09;4286339;28;20235;-69
2023/08/11 06:23:06;;;;;;;8.57;3.70;;;;;;;22.44;49.23;100762.56;4255169;28;21897;-68
2023/08/11 06:25:33;;;;;;;9.20;3.90;;;;;;;23.50;47.02;100771.28;4254941;28;20520;-68
2023/08/11 06:28:01;;;;;;;10.73;3.80;;;;;;;23.70;46.87;100761.97;4231506;28;20236;-69
2023/08/11 06:30:28;;;;;;;11.07;3.70;;;;;;;23.47;46.89;100774.50;4259828;28;20236;-67
2023/08/11 06:32:56;;;;;;;7.60;3.10;;;;;;;24.52;42.30;100770.06;4252082;28;20430;-67
2023/08/11 06:35:24;;;;;;;8.98;2.50;;;;;;;24.53;40.14;100765.34;4234796;28;20511;-67
2023/08/11 06:37:50;;;;;;;6.20;2.50;;;;;;;24.79;40.63;100778.03;4276762;28;20242;-67
2023/08/11 06:40:17;;;;;;;11.93;3.33;;;;;;;26.28;38.66;100777.34;4266125;28;23019;-67
2023/08/11 06:42:44;;;;;;;7.57;2.58;;;;;;;28.04;35.38;100769.38;4242103;28;22081;-69
2023/08/11 06:45:11;;;;;;;7.57;2.63;;;;;;;28.38;33.14;100769.34;4217747;28;20381;-68
2023/08/11 06:47:37;;;;;;;7.53;2.42;;;;;;;26.34;36.33;100770.81;4271502;28;20269;-68
2023/08/11 06:50:04;;;;;;;5.83;2.53;;;;;;;28.33;33.44;100775.69;4253340;28;20247;-66
2023/08/11 06:52:36;;;;;;;9.00;2.50;;;;;;;28.53;32.38;100769.53;4250313;28;25357;-70
2023/08/11 06:55:03;;;;;;;6.22;2.30;;;;;;;30.45;30.19;100775.63;4210496;28;22862;-68
2023/08/11 06:57:29;;;;;;;6.03;2.95;;;;;;;31.57;29.04;100778.16;4235974;28;20237;-68
2023/08/11 06:59:56;;;;;;;5.25;2.88;;;;;;;32.52;27.75;100770.13;4244773;28;20306;-69
2023/08/11 07:02:23;;;;;;;10.23;2.40;;;;;;;34.16;25.79;100770.00;4257233;28;21775;-69
2023/08/11 07:04:50;;;;;;;6.93;2.47;;;;;;;35.16;23.52;100774.06;4231118;28;21578;-68
2023/08/11 07:07:16;;;;;;;7.72;2.60;;;;;;;33.33;24.83;100770.78;4241464;28;20244;-69
2023/08/11 07:09:44;;;;;;;6.10;2.10;;;;;;;34.06;24.08;100782.19;4240516;28;20318;-71
2023/08/11 07:12:10;;;;;;;6.53;2.33;;;;;;;34.70;22.96;100772.72;4265757;28;20231;-68
2023/08/11 07:14:37;;;;;;;6.70;2.40;;;;;;;34.02;23.87;100781.13;4258563;28;20236;-70
2023/08/11 07:17:04;;;;;;;3.88;1.80;;;;;;;32.78;25.44;100790.47;4257291;28;20231;-66
2023/08/11 07:19:31;;;;;;;5.32;1.95;;;;;;;31.84;27.08;100786.25;4237794;28;20264;-66
2023/08/11 07:21:57;;;;;;;6.18;1.92;;;;;;;31.39;27.22;100790.72;4242927;28;20314;-71
2023/08/11 07:24:24;;;;;;;6.70;2.05;;;;;;;31.77;26.51;100794.94;4271065;28;20231;-68
2023/08/11 07:26:51;;;;;;;4.22;1.95;;;;;;;31.31;25.66;100789.34;4229973;28;20466;-70
2023/08/11 07:29:18;;;;;;;4.60;1.60;;;;;;;32.74;24.94;100791.31;4243402;28;25610;-68
2023/08/11 07:31:45;;;;;;;4.32;2.10;;;;;;;31.57;26.53;100794.94;4276321;28;25418;-70
2023/08/11 07:34:11;;;;;;;5.30;2.10;;;;;;;30.96;26.91;100796.53;4243162;28;20270;-70
2023/08/11 07:36:38;;;;;;;4.22;2.05;;;;;;;31.05;27.50;100792.03;4240439;28;20516;-71
2023/08/11 07:39:07;;;;;;;8.50;2.17;;;;;;;31.38;26.75;100789.06;4237373;28;20239;-70
2023/08/11 07:41:51;;;;;;;8.02;2.05;;;;;;;30.30;29.11;100793.16;4237286;28;21214;-51
2023/08/11 07:44:18;;;;;;;7.35;2.50;;;;;;;31.65;27.93;100787.94;4268484;28;20292;-54
2023/08/11 07:46:45;;;;;;;6.47;2.60;;;;;;;29.68;29.34;100787.16;4253897;28;20513;-52
2023/08/11 07:49:12;;;;;;;11.55;2.75;;;;;;;29.11;31.50;100788.59;4266721;28;23060;-46
2023/08/11 07:51:40;;;;;;;7.88;1.98;;;;;;;29.07;30.97;100793.84;4257077;28;20732;-69
2023/08/11 07:54:09;;;;;;;9.52;2.30;;;;;;;30.22;28.78;100792.81;4238964;28;21113;-67
2023/08/11 07:56:36;;;;;;;4.63;2.00;;;;;;;29.66;29.70;100791.34;4243780;28;21727;-69
2023/08/11 07:59:03;;;;;;;6.00;2.13;;;;;;;28.35;31.63;100783.75;4243009;28;20224;-69
2023/08/11 08:01:29;;;;;;;7.63;2.60;;;;;;;27.85;31.39;100791.94;4224651;28;23840;-69
2023/08/11 08:03:56;;;;;;;6.25;2.00;;;;;;;27.32;31.28;100796.88;4241451;28;20249;-66
2023/08/11 08:06:23;;;;;;;5.68;2.03;;;;;;;26.46;32.80;100784.66;4243627;28;21415;-69
2023/08/11 08:08:50;;;;;;;6.30;2.13;;;;;;;26.92;32.74;100797.81;4249856;28;20306;-68
2023/08/11 08:11:17;;;;;;;4.70;1.90;;;;;;;25.21;35.17;100773.59;4245321;28;21195;-65
2023/08/11 08:13:44;;;;;;;6.00;1.60;;;;;;;24.97;35.08;100796.50;4271510;28;20692;-69
2023/08/11 08:16:10;;;;;;;4.00;1.60;;;;;;;24.75;35.60;100790.66;4290099;28;20236;-70
2023/08/11 08:18:37;;;;;;;4.00;1.73;;;;;;;24.78;35.24;100797.66;4269040;28;20296;-68
2023/08/11 08:21:04;;;;;;;4.80;1.80;;;;;;;25.36;34.75;100798.94;4244113;28;20930;-68
2023/08/11 08:23:31;;;;;;;6.30;1.97;;;;;;;25.38;36.34;100799.56;4241214;28;20315;-70
2023/08/11 08:25:58;;;;;;;6.97;1.97;;;;;;;24.56;37.06;100802.78;4273949;28;20227;-68
2023/08/11 08:28:25;;;;;;;7.13;1.83;;;;;;;24.50;37.15;100801.81;4240900;28;20257;-67
2023/08/11 08:30:52;;;;;;;3.70;1.70;;;;;;;24.64;36.67;100805.22;4239807;28;20259;-67
2023/08/11 08:33:19;;;;;;;4.67;1.90;;;;;;;24.49;36.84;100808.41;4241141;28;20232;-69
2023/08/11 08:35:46;;;;;;;7.10;1.70;;;;;;;25.11;35.88;100802.72;4252921;28;20233;-68
2023/08/11 08:38:12;;;;;;;4.57;1.60;;;;;;;25.54;35.09;100803.59;4269411;28;23118;-67
2023/08/11 08:40:39;;;;;;;2.97;1.70;;;;;;;24.81;36.45;100794.41;4238335;28;20303;-68
2023/08/11 08:43:08;;;;;;;3.43;1.53;;;;;;;25.22;34.91;100791.91;4308470;28;20316;-69
2023/08/11 08:45:35;;;;;;;7.70;1.90;;;;;;;24.77;36.30;100790.41;4250609;28;20218;-67
2023/08/11 08:48:08;;;;;;;4.40;2.17;;;;;;;24.90;36.03;100801.31;4240249;28;20569;-69
2023/08/11 08:50:38;;;;;;;7.17;1.90;;;;;;;25.45;34.44;100800.28;4247914;28;22465;-69
2023/08/11 08:53:05;;;;;;;5.13;1.67;;;;;;;23.88;36.65;100795.19;4222561;28;20270;-68
2023/08/11 08:55:32;;;;;;;3.23;1.77;;;;;;;24.39;35.25;100803.44;4248955;28;20236;-69
2023/08/11 08:58:00;;;;;;;5.80;1.77;;;;;;;24.56;35.76;100794.47;4237031;28;21718;-70
2023/08/11 09:00:28;;;;;;;2.87;1.57;;;;;;;24.90;36.02;100800.47;4237922;28;20433;-67
2023/08/11 09:02:55;;;;;;;3.97;1.70;;;;;;;24.68;36.47;100793.50;4237859;28;20748;-68
2023/08/11 09:05:25;;;;;;;6.10;1.57;;;;;;;24.99;35.51;100797.13;4238155;28;20501;-67
2023/08/11 09:07:52;;;;;;;4.20;1.80;;;;;;;24.79;36.80;100804.88;4243743;28;25855;-68
2023/08/11 09:10:18;;;;;;;7.93;1.67;;;;;;;24.38;35.35;100798.97;4238121;28;21077;-69
2023/08/11 09:12:45;;;;;;;7.13;2.10;;;;;;;24.75;34.49;100798.97;4230346;28;21718;-67
2023/08/11 09:15:12;;;;;;;7.97;1.87;;;;;;;24.61;35.79;100800.19;4238665;28;21631;-69
2023/08/11 09:17:39;;;;;;;8.30;1.63;;;;;;;24.95;36.56;100793.16;4253923;28;22963;-70
2023/08/11 09:20:10;;;;;;;9.03;1.80;;;;;;;24.64;37.57;100795.03;4233819;28;20239;-67
2023/08/11 09:22:38;;;;;;;3.90;1.53;;;;;;;24.92;36.47;100803.84;4234431;28;21628;-70
2023/08/11 09:25:06;;;;;;;4.93;1.63;;;;;;;25.21;34.50;100793.81;4235558;28;20232;-68
2023/08/11 09:27:32;;;;;;;2.80;1.50;;;;;;;24.96;34.77;100797.59;4247195;28;20262;-68
2023/08/11 09:30:01;;;;;;;5.20;1.60;;;;;;;24.41;36.39;100801.25;4234432;28;20414;-70
2023/08/11 09:32:31;;;;;;;7.90;1.73;;;;;;;23.70;38.13;100795.16;4234872;28;20258;-68
2023/08/11 09:35:07;;;;;;;9.40;1.97;;;;;;;24.55;36.47;100801.13;4272252;28;20627;-69
2023/08/11 09:37:36;;;;;;;4.63;1.70;;;;;;;24.57;36.49;100799.81;4253097;28;20892;-70
2023/08/11 09:40:04;;;;;;;7.30;1.50;;;;;;;24.44;38.00;100797.16;4236923;28;22703;-67
2023/08/11 09:42:32;;;;;;;4.83;1.47;;;;;;;24.78;37.48;100792.94;4251564;28;21271;-69
2023/08/11 09:44:59;;;;;;;4.07;1.60;;;;;;;24.16;38.46;100788.34;4244920;28;20237;-68
2023/08/11 09:47:28;;;;;;;6.17;1.80;;;;;;;24.14;39.30;100792.41;4244956;28;20232;-68
2023/08/11 09:49:55;;;;;;;4.60;2.50;;;;;;;23.92;39.12;100794.75;4233424;28;20491;-67
2023/08/11 09:52:23;;;;;;;7.60;2.47;;;;;;;24.14;39.40;100797.94;4259555;28;20231;-68
2023/08/11 09:54:50;;;;;;;5.80;2.33;;;;;;;24.04;40.80;100790.16;4237826;28;20341;-69
2023/08/11 09:57:18;;;;;;;4.57;1.77;;;;;;;24.72;36.59;100796.66;4242677;28;20240;-67
2023/08/11 09:59:46;;;;;;;2.70;1.50;;;;;;;24.34;37.24;100803.25;4247700;28;20784;-67
2023/08/11 10:02:17;;;;;;;8.50;1.60;;;;;;;24.33;38.33;100796.03;4257050;28;20220;-66
2023/08/11 10:04:57;;;;;;;4.53;1.40;;;;;;;24.74;36.60;100801.94;4235549;28;22928;-68
2023/08/11 10:07:30;;;;;;;6.20;1.30;;;;;;;24.74;35.76;100791.72;4248683;28;20238;-68
2023/08/11 10:10:00;;;;;;;9.50;1.50;;;;;;;24.57;37.09;100794.25;4241003;28;20588;-67
2023/08/11 10:12:27;;;;;;;6.67;2.63;;;;;;;23.80;38.27;100784.41;4257425;28;20234;-66
2023/08/11 10:14:54;;;;;;;4.03;1.70;;;;;;;23.79;38.29;100792.94;4259289;28;20493;-67
2023/08/11 10:17:22;;;;;;;3.50;1.40;;;;;;;23.85;38.92;100795.66;4248999;28;22677;-69
2023/08/11 10:19:50;;;;;;;3.83;1.30;;;;;;;24.34;37.83;100786.66;4254138;28;21626;-69
2023/08/11 10:22:17;;;;;;;3.30;1.70;;;;;;;24.29;36.79;100795.63;4252580;28;20243;-68
2023/08/11 10:24:44;;;;;;;3.30;1.33;;;;;;;24.24;38.34;100801.03;4254602;28;20588;-66
2023/08/11 10:27:11;;;;;;;5.13;1.57;;;;;;;24.65;37.20;100793.94;4250539;28;22150;-67
2023/08/11 10:29:38;;;;;;;4.73;1.63;;;;;;;24.48;37.18;100790.94;4236103;28;20435;-69
2023/08/11 10:32:05;;;;;;;3.90;1.57;;;;;;;24.74;36.02;100788.97;4252916;28;20326;-69
2023/08/11 10:34:32;;;;;;;6.73;1.50;;;;;;;25.21;34.65;100781.91;4254671;28;20818;-70
2023/08/11 10:36:58;;;;;;;2.07;1.27;;;;;;;25.12;35.21;100792.47;4261445;28;20283;-68
2023/08/11 10:39:25;;;;;;;3.57;1.70;;;;;;;24.42;36.39;100782.75;4243664;28;20604;-70
2023/08/11 10:41:57;;;;;;;7.23;1.33;;;;;;;25.05;34.38;100780.66;4251506;28;20798;-69
2023/08/11 10:44:28;;;;;;;2.80;1.50;;;;;;;25.11;34.23;100780.56;4236071;28;20733;-67
2023/08/11 10:47:01;;;;;;;4.93;1.50;;;;;;;25.24;33.76;100778.66;4249699;28;21581;-68
2023/08/11 10:49:33;;;;;;;7.03;1.37;;;;;;;25.48;33.57;100776.81;4246670;28;21786;-66
2023/08/11 10:52:02;;;;;;;7.80;2.20;;;;;;;25.21;35.64;100788.28;4243900;28;20242;-69
2023/08/11 10:54:29;;;;;;;6.05;1.85;;;;;;;24.87;36.15;100785.19;4246876;28;22982;-71
2023/08/11 10:56:59;;;;;;;3.47;1.17;;;;;;;25.03;35.82;100778.13;4250085;28;20231;-68
2023/08/11 10:59:31;;;;;;;3.03;1.08;;;;;;;24.00;35.67;100772.34;4265670;28;20247;-74
2023/08/11 11:01:59;;;;;;;3.57;1.47;;;;;;;23.78;37.18;100769.13;4271540;28;23573;-72
2023/08/11 11:04:29;;;;;;;6.90;1.60;;;;;;;23.57;37.35;100765.72;4218274;28;21812;-73
2023/08/11 11:06:58;;;;;;;5.57;1.43;;;;;;;23.94;37.01;100768.56;4288512;28;20367;-70
2023/08/11 11:09:27;;;;;;;4.77;1.40;;;;;;;24.17;36.59;100769.81;4275985;28;20333;-68
2023/08/11 11:11:55;;;;;;;4.63;1.60;;;;;;;24.48;36.82;100774.34;4241418;28;20616;-67
2023/08/11 11:14:22;;;;;;;5.23;3.13;;;;;;;23.89;35.97;100779.44;4254269;28;20239;-73
2023/08/11 11:16:49;;;;;;;4.43;1.80;;;;;;;24.16;36.58;100773.66;4257343;28;20670;-66
2023/08/11 11:19:16;;;;;;;3.23;1.00;;;;;;;24.44;35.42;100775.91;4242281;28;20229;-68
2023/08/11 11:21:43;;;;;;;2.57;1.40;;;;;;;24.30;34.87;100763.31;4254666;28;20406;-68
2023/08/11 11:24:10;;;;;;;4.53;1.50;;;;;;;24.68;34.52;100770.53;4263133;28;20231;-69